createdAt,value
2018-01-11T00:01:36.028Z,231.70
2018-01-11T00:04:03.660Z,131.03
2018-01-11T00:06:31.322Z,154.03
2018-01-11T00:08:58.988Z,257.80
2018-01-11T00:11:26.603Z,259.20
2018-01-11T00:13:54.196Z,193.07
2018-01-11T00:16:21.811Z,212.77
2018-01-11T00:18:49.407Z,197.60
2018-01-11T00:23:46.658Z,186.10
2018-01-11T00:26:14.275Z,116.80
2018-01-11T00:28:42.748Z,175.60
2018-01-11T00:31:11.852Z,120.53
2018-01-11T00:33:40.240Z,180.60
2018-01-11T00:36:08.601Z,414.73
2018-01-11T00:38:36.259Z,137.73
2018-01-11T00:41:03.855Z,114.53
2018-01-11T00:43:31.471Z,156.67
2018-01-11T00:45:59.068Z,149.00
2018-01-11T00:48:27.527Z,151.60
2018-01-11T00:50:55.119Z,148.30
2018-01-11T00:53:22.853Z,113.63
2018-01-11T00:55:51.227Z,174.10
2018-01-11T00:58:18.900Z,154.07
2018-01-11T01:00:46.559Z,144.80
2018-01-11T01:03:14.200Z,136.50
2018-01-11T01:05:41.800Z,113.43
2018-01-11T01:08:10.264Z,122.63
2018-01-11T01:10:37.923Z,92.90
2018-01-11T01:13:05.516Z,88.53
2018-01-11T01:15:33.127Z,96.17
2018-01-11T01:18:00.813Z,90.63
2018-01-11T01:20:28.471Z,86.83
2018-01-11T01:22:56.136Z,84.77
2018-01-11T01:25:24.516Z,99.40
2018-01-11T01:27:52.176Z,98.83
2018-01-11T01:30:19.787Z,146.07
2018-01-11T01:32:47.386Z,129.97
2018-01-11T01:35:15.073Z,126.30
2018-01-11T01:37:42.727Z,114.67
2018-01-11T01:40:10.344Z,101.03
2018-01-11T01:42:37.932Z,108.07
2018-01-11T01:45:05.616Z,83.23
2018-01-11T01:47:33.275Z,90.47
2018-01-11T01:50:00.880Z,116.53
2018-01-11T01:52:28.521Z,81.17
2018-01-11T01:54:56.883Z,123.33
2018-01-11T01:57:24.496Z,104.77
2018-01-11T01:59:52.108Z,108.03
2018-01-11T02:02:19.723Z,109.90
2018-01-11T02:04:47.320Z,101.93
2018-01-11T02:07:14.932Z,97.87
2018-01-11T02:09:42.527Z,76.77
2018-01-11T02:12:10.148Z,97.57
2018-01-11T02:14:37.871Z,88.97
2018-01-11T02:17:05.540Z,113.87
2018-01-11T02:19:33.136Z,90.77
2018-01-11T02:22:00.760Z,98.70
2018-01-11T02:24:28.371Z,92.87
2018-01-11T02:26:55.968Z,101.50
2018-01-11T02:29:23.645Z,95.07
2018-01-11T02:31:51.316Z,101.53
2018-01-11T02:34:19.703Z,98.50
2018-01-11T02:36:48.176Z,110.10
2018-01-11T02:39:15.797Z,117.27
2018-01-11T02:41:43.389Z,116.70
2018-01-11T02:44:11.060Z,124.50
2018-01-11T02:46:38.657Z,114.13
2018-01-11T02:49:06.281Z,131.50
2018-01-11T02:51:33.943Z,108.87
2018-01-11T02:54:01.608Z,102.97
2018-01-11T02:56:29.272Z,121.20
2018-01-11T02:58:56.930Z,108.97
2018-01-11T03:01:24.596Z,105.60
2018-01-11T03:03:52.265Z,184.13
2018-01-11T03:06:20.654Z,96.50
2018-01-11T03:08:49.120Z,120.90
2018-01-11T03:11:16.784Z,131.53
2018-01-11T03:13:44.375Z,120.70
2018-01-11T03:16:12.760Z,131.63
2018-01-11T03:18:40.356Z,207.33
2018-01-11T03:21:07.976Z,128.10
2018-01-11T03:23:35.612Z,171.27
2018-01-11T03:26:03.228Z,177.33
2018-01-11T03:28:30.935Z,214.00
2018-01-11T03:30:58.550Z,404.17
2018-01-11T03:33:26.160Z,214.87
2018-01-11T03:35:55.284Z,169.07
2018-01-11T03:38:22.882Z,163.03
2018-01-11T03:40:50.496Z,362.23
2018-01-11T03:43:18.860Z,178.83
2018-01-11T03:45:46.519Z,345.20
2018-01-11T03:48:14.900Z,225.70
2018-01-11T03:50:42.496Z,180.10
2018-01-11T03:53:10.121Z,241.07
2018-01-11T03:55:37.716Z,286.57
2018-01-11T03:58:05.336Z,193.07
2018-01-11T04:00:32.932Z,156.70
2018-01-11T04:03:01.329Z,269.93
2018-01-11T04:05:28.924Z,183.97
2018-01-11T04:07:56.589Z,182.17
2018-01-11T04:10:24.183Z,351.33
2018-01-11T04:12:52.583Z,277.77
2018-01-11T04:15:20.172Z,402.80
2018-01-11T04:17:47.764Z,476.50
2018-01-11T04:20:15.443Z,240.90
2018-01-11T04:22:43.036Z,247.87
2018-01-11T04:25:10.656Z,344.90
2018-01-11T04:27:38.326Z,372.57
2018-01-11T04:30:05.943Z,522.57
2018-01-11T04:32:33.652Z,281.13
2018-01-11T04:35:01.273Z,400.53
2018-01-11T04:37:28.868Z,209.17
2018-01-11T04:39:56.535Z,275.43
2018-01-11T04:42:24.200Z,240.27
2018-01-11T04:44:51.820Z,194.13
2018-01-11T04:47:19.524Z,160.10
2018-01-11T04:49:47.143Z,175.07
2018-01-11T04:52:14.852Z,169.63
2018-01-11T04:54:42.508Z,145.67
2018-01-11T04:57:10.133Z,144.00
2018-01-11T04:59:37.724Z,158.53
2018-01-11T05:02:05.343Z,136.47
2018-01-11T05:04:32.960Z,126.97
2018-01-11T05:07:01.344Z,146.13
2018-01-11T05:09:29.001Z,165.80
2018-01-11T05:11:56.619Z,177.33
2018-01-11T05:14:24.212Z,164.00
2018-01-11T05:16:51.894Z,139.13
2018-01-11T05:19:19.488Z,157.43
2018-01-11T05:21:47.212Z,147.67
2018-01-11T05:24:14.875Z,173.37
2018-01-11T05:26:42.496Z,166.23
2018-01-11T05:29:10.113Z,152.53
2018-01-11T05:31:38.480Z,138.10
2018-01-11T05:34:06.252Z,131.27
2018-01-11T05:36:34.728Z,110.07
2018-01-11T05:39:02.345Z,144.30
2018-01-11T05:41:29.935Z,127.57
2018-01-11T05:43:57.558Z,126.17
2018-01-11T05:46:25.999Z,109.83
2018-01-11T05:48:53.660Z,110.77
2018-01-11T05:51:21.325Z,109.63
2018-01-11T05:53:49.708Z,112.67
2018-01-11T05:56:18.202Z,110.90
2018-01-11T05:58:46.592Z,103.20
2018-01-11T06:01:14.224Z,127.97
2018-01-11T06:03:41.855Z,132.10
2018-01-11T06:06:09.447Z,109.43
2018-01-11T06:08:37.108Z,109.13
2018-01-11T06:11:04.708Z,121.40
2018-01-11T06:13:32.335Z,121.93
2018-01-11T06:15:59.959Z,141.70
2018-01-11T06:18:27.656Z,109.70
2018-01-11T06:20:55.320Z,132.87
2018-01-11T06:23:22.976Z,128.70
2018-01-11T06:25:51.364Z,125.10
2018-01-11T06:28:18.955Z,114.93
2018-01-11T06:30:46.571Z,133.97
2018-01-11T06:33:14.248Z,109.03
2018-01-11T06:35:41.867Z,105.27
2018-01-11T06:38:09.452Z,99.67
2018-01-11T06:40:37.190Z,93.10
2018-01-11T06:43:04.764Z,89.63
2018-01-11T06:45:32.380Z,108.20
2018-01-11T06:48:00.748Z,84.47
2018-01-11T06:50:29.127Z,134.80
2018-01-11T06:52:57.523Z,96.73
2018-01-11T06:55:25.161Z,92.27
2018-01-11T06:57:52.815Z,93.43
2018-01-11T07:00:20.479Z,85.90
2018-01-11T07:02:48.148Z,96.37
2018-01-11T07:05:15.812Z,95.13
2018-01-11T07:07:44.199Z,93.40
2018-01-11T07:10:12.552Z,94.97
2018-01-11T07:12:40.232Z,105.23
2018-01-11T07:15:07.896Z,85.00
2018-01-11T07:17:35.560Z,96.53
2018-01-11T07:20:03.220Z,92.97
2018-01-11T07:22:30.880Z,85.20
2018-01-11T07:24:58.484Z,103.60
2018-01-11T07:27:26.108Z,92.20
2018-01-11T07:29:53.695Z,91.33
2018-01-11T07:32:21.329Z,100.07
2018-01-11T07:34:48.924Z,102.97
2018-01-11T07:37:16.537Z,94.37
2018-01-11T07:39:44.132Z,81.47
2018-01-11T07:42:12.483Z,86.83
2018-01-11T07:44:40.152Z,83.87
2018-01-11T07:47:07.748Z,90.53
2018-01-11T07:49:35.384Z,79.27
2018-01-11T07:52:02.973Z,86.43
2018-01-11T07:54:30.589Z,84.97
2018-01-11T07:56:58.260Z,81.50
2018-01-11T07:59:26.644Z,92.87
2018-01-11T08:01:54.236Z,82.47
2018-01-11T08:04:21.907Z,86.47
2018-01-11T08:06:50.239Z,82.33
2018-01-11T08:09:17.903Z,88.83
2018-01-11T08:11:45.572Z,92.90
2018-01-11T08:14:13.236Z,90.77
2018-01-11T08:16:41.612Z,87.57
2018-01-11T08:19:09.224Z,89.03
2018-01-11T08:21:36.832Z,83.60
2018-01-11T08:24:04.448Z,92.90
2018-01-11T08:26:32.040Z,96.93
2018-01-11T08:28:59.651Z,82.90
2018-01-11T08:31:27.289Z,71.07
2018-01-11T08:33:54.880Z,75.53
2018-01-11T08:36:22.496Z,82.50
2018-01-11T08:38:50.172Z,86.63
2018-01-11T08:41:17.894Z,102.93
2018-01-11T08:43:45.488Z,96.77
2018-01-11T08:46:13.104Z,85.47
2018-01-11T08:48:40.720Z,100.00
2018-01-11T08:51:08.387Z,101.43
2018-01-11T08:53:35.989Z,86.83
2018-01-11T08:56:03.708Z,113.73
2018-01-11T08:58:31.303Z,102.07
2018-01-11T09:00:58.895Z,98.93
2018-01-11T09:03:26.600Z,106.93
2018-01-11T09:05:54.184Z,90.07
2018-01-11T09:08:21.800Z,95.07
2018-01-11T09:10:49.438Z,95.53
2018-01-11T09:13:17.044Z,89.27
2018-01-11T09:15:45.408Z,76.47
2018-01-11T09:18:13.079Z,67.93
2018-01-11T09:20:40.672Z,77.27
2018-01-11T09:23:08.288Z,81.60
2018-01-11T09:25:35.880Z,71.53
2018-01-11T09:28:04.260Z,79.80
2018-01-11T09:30:32.611Z,70.10
2018-01-11T09:33:00.224Z,77.37
2018-01-11T09:35:27.852Z,75.20
2018-01-11T09:37:55.512Z,56.17
2018-01-11T09:40:23.103Z,71.50
2018-01-11T09:42:50.816Z,60.90
2018-01-11T09:45:18.408Z,63.23
2018-01-11T09:47:46.764Z,68.63
2018-01-11T09:50:14.464Z,59.77
2018-01-11T09:52:42.924Z,60.60
2018-01-11T09:55:10.589Z,54.23
2018-01-11T09:57:39.128Z,60.77
2018-01-11T10:00:06.731Z,62.10
2018-01-11T10:02:34.345Z,50.70
2018-01-11T10:05:01.965Z,50.80
2018-01-11T10:07:30.432Z,42.73
2018-01-11T10:09:58.100Z,47.67
2018-01-11T10:12:25.695Z,43.23
2018-01-11T10:14:53.304Z,34.47
2018-01-11T10:17:20.989Z,47.37
2018-01-11T10:19:48.612Z,41.13
2018-01-11T10:22:16.204Z,42.40
2018-01-11T10:24:43.800Z,46.60
2018-01-11T10:27:11.484Z,44.50
2018-01-11T10:29:39.128Z,43.70
2018-01-11T10:32:06.744Z,48.77
2018-01-11T10:34:34.479Z,43.70
2018-01-11T10:37:02.188Z,43.17
2018-01-11T10:39:29.780Z,41.80
2018-01-11T10:41:57.407Z,46.73
2018-01-11T10:44:25.786Z,40.40
2018-01-11T10:46:53.452Z,40.93
2018-01-11T10:49:21.044Z,42.70
2018-01-11T10:51:48.656Z,40.27
2018-01-11T10:54:16.251Z,45.03
2018-01-11T10:56:44.632Z,37.13
2018-01-11T10:59:12.992Z,38.00
2018-01-11T11:01:46.380Z,39.03
2018-01-11T11:04:13.976Z,35.00
2018-01-11T11:06:41.608Z,36.60
2018-01-11T11:09:09.215Z,32.30
2018-01-11T11:11:36.811Z,30.97
2018-01-11T11:14:04.500Z,29.10
2018-01-11T11:16:32.164Z,29.97
2018-01-11T11:18:59.820Z,34.40
2018-01-11T11:21:28.204Z,38.23
2018-01-11T11:23:55.829Z,37.90
2018-01-11T11:26:23.424Z,38.23
2018-01-11T11:28:51.087Z,30.60
2018-01-11T11:31:18.683Z,33.03
2018-01-11T11:33:46.316Z,33.83
2018-01-11T11:36:13.976Z,35.97
2018-01-11T11:38:41.592Z,31.53
2018-01-11T11:41:09.184Z,30.67
2018-01-11T11:43:36.868Z,31.40
2018-01-11T11:46:05.242Z,28.53
2018-01-11T11:48:32.904Z,33.47
2018-01-11T11:51:00.568Z,37.10
2018-01-11T11:53:28.232Z,26.27
2018-01-11T11:55:55.860Z,34.60
2018-01-11T11:58:23.553Z,29.73
2018-01-11T12:00:51.143Z,46.00
2018-01-11T12:03:19.604Z,44.83
2018-01-11T12:05:47.959Z,47.50
2018-01-11T12:08:15.647Z,38.50
2018-01-11T12:10:44.029Z,35.97
2018-01-11T12:13:12.500Z,35.30
2018-01-11T12:15:40.118Z,36.73
2018-01-11T12:18:07.729Z,34.70
2018-01-11T12:20:36.112Z,28.83
2018-01-11T12:23:04.467Z,27.13
2018-01-11T12:25:32.124Z,26.40
2018-01-11T12:27:59.712Z,29.80
2018-01-11T12:30:28.844Z,27.63
2018-01-11T12:32:56.436Z,25.23
2018-01-11T12:35:24.048Z,23.63
2018-01-11T12:37:52.512Z,25.17
2018-01-11T12:40:20.171Z,31.20
2018-01-11T12:42:47.772Z,28.70
2018-01-11T12:45:15.500Z,28.40
2018-01-11T12:47:43.097Z,32.30
2018-01-11T12:50:10.824Z,24.90
2018-01-11T12:52:39.184Z,26.30
2018-01-11T12:55:06.868Z,23.30
2018-01-11T12:57:34.491Z,25.90
2018-01-11T13:00:02.188Z,27.40
2018-01-11T13:02:29.804Z,32.33
2018-01-11T13:04:57.476Z,28.80
2018-01-11T13:07:25.087Z,28.80
2018-01-11T13:09:53.444Z,26.37
2018-01-11T13:12:21.829Z,25.60
2018-01-11T13:14:49.496Z,28.50
2018-01-11T13:17:17.164Z,33.20
2018-01-11T13:19:44.825Z,30.30
2018-01-11T13:22:12.441Z,30.33
2018-01-11T13:24:40.049Z,36.47
2018-01-11T13:27:07.660Z,33.07
2018-01-11T13:29:35.247Z,36.57
2018-01-11T13:32:02.839Z,42.57
2018-01-11T13:34:31.220Z,38.60
2018-01-11T13:36:59.576Z,46.43
2018-01-11T13:39:27.193Z,46.03
2018-01-11T13:41:54.816Z,39.80
2018-01-11T13:44:22.477Z,43.47
2018-01-11T13:46:50.139Z,44.50
2018-01-11T13:49:17.804Z,40.50
2018-01-11T13:51:45.468Z,47.60
2018-01-11T13:54:13.082Z,45.83
2018-01-11T13:56:40.667Z,45.63
2018-01-11T13:59:08.356Z,50.23
2018-01-11T14:01:35.952Z,48.47
2018-01-11T14:04:03.656Z,46.60
2018-01-11T14:06:31.252Z,44.30
2018-01-11T14:08:59.631Z,49.93
2018-01-11T14:11:27.983Z,52.80
2018-01-11T14:13:55.660Z,47.70
2018-01-11T14:16:23.310Z,55.83
2018-01-11T14:18:50.904Z,56.13
2018-01-11T14:21:19.264Z,57.63
2018-01-11T14:23:46.967Z,60.50
2018-01-11T14:26:14.593Z,52.93
2018-01-11T14:28:42.192Z,58.77
2018-01-11T14:31:09.804Z,52.17
2018-01-11T14:33:37.396Z,56.40
2018-01-11T14:36:05.785Z,58.60
2018-01-11T14:38:33.380Z,62.17
2018-01-11T14:41:01.074Z,69.07
2018-01-11T14:43:28.740Z,65.17
2018-01-11T14:45:56.360Z,72.43
2018-01-11T14:48:23.951Z,85.20
2018-01-11T14:50:51.564Z,71.70
2018-01-11T14:53:19.161Z,87.57
2018-01-11T14:55:46.780Z,85.73
2018-01-11T14:58:14.376Z,83.17
2018-01-11T15:00:42.000Z,85.03
2018-01-11T15:03:09.631Z,95.10
2018-01-11T15:05:37.300Z,107.07
2018-01-11T15:08:04.960Z,116.07
2018-01-11T15:10:32.548Z,97.80
2018-01-11T15:13:00.936Z,88.63
2018-01-11T15:15:28.528Z,106.53
2018-01-11T15:17:56.144Z,116.87
2018-01-11T15:20:23.789Z,120.83
2018-01-11T15:22:52.268Z,118.30
2018-01-11T15:25:19.861Z,108.97
2018-01-11T15:27:47.480Z,112.30
2018-01-11T15:30:15.086Z,144.57
2018-01-11T15:32:42.726Z,117.00
2018-01-11T15:35:11.196Z,115.00
2018-01-11T15:37:38.815Z,125.07
2018-01-11T15:40:06.522Z,120.50
2018-01-11T15:42:34.197Z,133.07
2018-01-11T15:45:02.557Z,149.43
2018-01-11T15:47:30.156Z,143.17
2018-01-11T15:49:57.780Z,140.03
2018-01-11T15:52:26.140Z,156.17
2018-01-11T15:54:53.760Z,155.57
2018-01-11T15:57:21.356Z,156.97
2018-01-11T15:59:49.056Z,161.30
2018-01-11T16:02:16.656Z,159.23
2018-01-11T16:04:44.380Z,183.53
2018-01-11T16:07:11.974Z,143.90
2018-01-11T16:09:39.596Z,165.27
2018-01-11T16:12:07.192Z,174.67
2018-01-11T16:14:34.824Z,182.97
2018-01-11T16:17:02.489Z,179.13
2018-01-11T16:19:30.106Z,173.47
2018-01-11T16:21:57.812Z,170.93
2018-01-11T16:24:25.553Z,183.97
2018-01-11T16:26:53.140Z,161.00
2018-01-11T16:29:20.767Z,185.90
2018-01-11T16:31:48.368Z,173.83
2018-01-11T16:34:16.024Z,169.40
2018-01-11T16:36:43.641Z,177.83
2018-01-11T16:39:11.236Z,160.20
2018-01-11T16:41:38.912Z,155.93
2018-01-11T16:44:06.508Z,184.47
2018-01-11T16:46:34.127Z,189.63
2018-01-11T16:49:01.720Z,167.70
2018-01-11T16:51:30.160Z,169.30
2018-01-11T16:53:57.757Z,168.37
2018-01-11T16:56:26.140Z,165.10
2018-01-11T16:58:54.504Z,156.20
2018-01-11T17:01:22.888Z,183.73
2018-01-11T17:03:51.248Z,161.07
2018-01-11T17:06:18.920Z,153.67
2018-01-11T17:08:46.586Z,182.47
2018-01-11T17:11:14.244Z,155.40
2018-01-11T17:13:42.624Z,167.70
2018-01-11T17:16:11.740Z,177.63
2018-01-11T17:18:40.124Z,176.13
2018-01-11T17:21:08.484Z,158.10
2018-01-11T17:23:36.145Z,170.90
2018-01-11T17:26:03.741Z,177.63
2018-01-11T17:28:31.356Z,180.03
2018-01-11T17:30:58.956Z,167.73
2018-01-11T17:33:27.345Z,174.70
2018-01-11T17:35:54.976Z,173.53
2018-01-11T17:38:23.375Z,175.60
2018-01-11T17:40:50.976Z,174.87
2018-01-11T17:43:18.672Z,187.77
2018-01-11T17:45:46.272Z,186.83
2018-01-11T17:48:13.864Z,176.10
2018-01-11T17:50:41.492Z,170.83
2018-01-11T17:53:09.088Z,170.47
2018-01-11T17:55:36.720Z,186.87
2018-01-11T17:58:04.345Z,162.50
2018-01-11T18:00:31.962Z,188.17
2018-01-11T18:02:59.556Z,187.67
2018-01-11T18:05:27.233Z,175.20
2018-01-11T18:07:54.893Z,179.03
2018-01-11T18:10:22.614Z,188.87
2018-01-11T18:12:50.320Z,165.10
2018-01-11T18:15:18.044Z,183.87
2018-01-11T18:17:45.748Z,210.30
2018-01-11T18:20:13.413Z,167.80
2018-01-11T18:22:41.012Z,192.83
2018-01-11T18:25:08.604Z,172.97
2018-01-11T18:27:36.303Z,190.77
2018-01-11T18:30:03.897Z,186.23
2018-01-11T18:32:31.581Z,184.80
2018-01-11T18:34:59.176Z,173.90
2018-01-11T18:37:26.792Z,191.47
2018-01-11T18:39:54.408Z,187.37
2018-01-11T18:42:22.025Z,175.83
2018-01-11T18:44:49.732Z,171.40
2018-01-11T18:47:17.351Z,199.70
2018-01-11T18:49:45.056Z,205.37
2018-01-11T18:52:12.720Z,195.53
2018-01-11T18:54:40.315Z,192.80
2018-01-11T18:57:08.048Z,189.27
2018-01-11T18:59:35.708Z,199.00
2018-01-11T19:02:03.300Z,212.30
2018-01-11T19:04:30.920Z,188.73
2018-01-11T19:06:58.516Z,183.83
2018-01-11T19:09:26.895Z,199.33
2018-01-11T19:11:55.276Z,187.13
2018-01-11T19:14:23.740Z,231.43
2018-01-11T19:16:51.332Z,180.90
2018-01-11T19:19:19.057Z,225.83
2018-01-11T19:21:46.724Z,201.27
2018-01-11T19:24:14.384Z,219.03
2018-01-11T19:26:41.976Z,264.63
2018-01-11T19:29:09.596Z,224.27
2018-01-11T19:31:37.192Z,227.77
2018-01-11T19:34:05.572Z,238.30
2018-01-11T19:36:33.940Z,194.83
2018-01-11T19:39:02.324Z,240.47
2018-01-11T19:41:30.688Z,216.00
2018-01-11T19:43:58.309Z,248.53
2018-01-11T19:46:26.012Z,239.30
2018-01-11T19:48:53.648Z,262.87
2018-01-11T19:51:21.340Z,247.83
2018-01-11T19:53:48.932Z,251.23
2018-01-11T19:56:16.548Z,270.17
2018-01-11T19:58:44.144Z,266.37
2018-01-11T20:01:12.532Z,252.77
2018-01-11T20:03:40.127Z,311.30
2018-01-11T20:06:07.743Z,303.17
2018-01-11T20:08:36.104Z,285.10
2018-01-11T20:11:03.723Z,280.33
2018-01-11T20:13:31.320Z,319.87
2018-01-11T20:15:58.946Z,287.93
2018-01-11T20:18:26.540Z,290.27
2018-01-11T20:20:54.215Z,277.97
2018-01-11T20:23:21.812Z,247.30
2018-01-11T20:25:49.436Z,300.77
2018-01-11T20:28:17.100Z,252.07
2018-01-11T20:30:45.480Z,262.97
2018-01-11T20:33:13.139Z,324.23
2018-01-11T20:35:40.804Z,286.40
2018-01-11T20:38:08.471Z,243.93
2018-01-11T20:40:36.832Z,232.63
2018-01-11T20:43:04.448Z,240.20
2018-01-11T20:45:32.048Z,229.37
2018-01-11T20:47:59.664Z,235.63
2018-01-11T20:50:27.256Z,215.27
2018-01-11T20:52:54.868Z,216.70
2018-01-11T20:55:23.235Z,201.67
2018-01-11T20:57:50.852Z,220.03
2018-01-11T21:00:18.559Z,187.93
2018-01-11T21:02:46.224Z,215.37
2018-01-11T21:05:13.828Z,222.27
2018-01-11T21:07:41.547Z,224.97
2018-01-11T21:10:09.212Z,223.20
2018-01-11T21:12:36.852Z,214.50
2018-01-11T21:15:04.448Z,212.97
2018-01-11T21:17:32.812Z,226.70
2018-01-11T21:20:00.433Z,224.23
2018-01-11T21:22:28.028Z,188.90
2018-01-11T21:24:55.650Z,184.80
2018-01-11T21:27:23.264Z,182.40
2018-01-11T21:29:50.923Z,213.13
2018-01-11T21:32:18.584Z,213.53
2018-01-11T21:34:46.204Z,203.93
2018-01-11T21:37:13.796Z,175.87
2018-01-11T21:39:41.412Z,207.10
2018-01-11T21:42:09.007Z,193.13
2018-01-11T21:44:36.628Z,200.23
2018-01-11T21:47:04.255Z,202.23
2018-01-11T21:49:31.873Z,200.00
2018-01-11T21:51:59.480Z,216.90
2018-01-11T21:54:27.840Z,195.80
2018-01-11T21:56:55.520Z,172.37
2018-01-11T21:59:23.111Z,173.20
2018-01-11T22:01:50.730Z,163.63
2018-01-11T22:04:18.413Z,192.03
2018-01-11T22:06:46.068Z,184.03
2018-01-11T22:09:13.733Z,150.33
2018-01-11T22:11:41.395Z,186.00
2018-01-11T22:14:09.056Z,156.53
2018-01-11T22:16:36.677Z,158.77
2018-01-11T22:19:04.385Z,176.50
2018-01-11T22:21:32.010Z,161.73
2018-01-11T22:23:59.604Z,201.80
2018-01-11T22:26:27.200Z,215.70
2018-01-11T22:28:54.820Z,199.67
2018-01-11T22:31:22.500Z,197.50
2018-01-11T22:33:50.888Z,194.33
2018-01-11T22:36:19.353Z,187.70
2018-01-11T22:38:47.016Z,184.37
2018-01-11T22:41:14.679Z,186.77
2018-01-11T22:43:42.345Z,197.50
2018-01-11T22:46:10.009Z,202.47
2018-01-11T22:48:38.400Z,245.23
2018-01-11T22:51:06.765Z,220.50
2018-01-11T22:53:34.428Z,229.03
2018-01-11T22:56:02.020Z,207.30
2018-01-11T22:58:29.651Z,201.47
2018-01-11T23:00:57.312Z,209.37
2018-01-11T23:03:24.924Z,235.67
2018-01-11T23:05:52.541Z,271.17
2018-01-11T23:08:20.156Z,222.60
2018-01-11T23:10:48.380Z,273.93
2018-01-11T23:13:16.036Z,269.20
2018-01-11T23:15:43.699Z,262.80
2018-01-11T23:18:11.363Z,300.33
2018-01-11T23:20:39.021Z,354.97
2018-01-11T23:23:06.620Z,325.97
2018-01-11T23:25:34.236Z,309.40
2018-01-11T23:28:01.911Z,311.43
2018-01-11T23:30:29.531Z,343.83
2018-01-11T23:32:57.119Z,266.13
2018-01-11T23:35:24.796Z,277.20
2018-01-11T23:37:52.459Z,236.67
2018-01-11T23:40:20.079Z,219.90
2018-01-11T23:42:47.668Z,279.40
2018-01-11T23:45:15.289Z,247.60
2018-01-11T23:47:42.914Z,308.27
2018-01-11T23:50:11.387Z,268.73
2018-01-11T23:52:39.056Z,251.23
2018-01-11T23:55:06.715Z,297.27
2018-01-11T23:57:34.375Z,293.27
